Oxford, Connecticut
Current Conditions -  °F | °C
As of 11:55 PM on Sunday 21 Dec 2014 (Local Time) from KOXC Reporting Station
Overcast Overcast  
Wind Chill: 26°   Ceiling: 2000
Heat Index: 32°   Visibility: 10mi
Dew Point: 27°   Wind: 6mph
Humidity: 80%   Direction: 40°NE
Pressure: 30.32"   Gusts: NA
Location:  41.42°N, 73.13°W
Report Text: KOXC 220455Z 04005KT 10SM FEW006 BKN020 OVC037 00/M03 A3032 RMK AO1
Loading
Personal Weather Stations






























Interactive Weather Map New forecast layout! Learn more

10-Day Weather Forecast

Advertisements
Track Severe Weather on mobile